createdAt,value
2022-08-07T00:00:46.321Z,12.51
2022-08-07T00:02:36.165Z,12.48
2022-08-07T00:02:46.350Z,12.47
2022-08-07T00:03:47.258Z,12.45
2022-08-07T00:04:46.553Z,12.45
2022-08-07T00:05:46.454Z,12.45
2022-08-07T00:06:51.723Z,12.45
2022-08-07T00:07:46.493Z,12.47
2022-08-07T00:08:46.552Z,12.47
2022-08-07T00:09:59.191Z,12.47
2022-08-07T00:10:47.973Z,12.44
2022-08-07T00:11:48.020Z,12.45
2022-08-07T00:13:00.589Z,12.48
2022-08-07T00:13:46.733Z,12.47
2022-08-07T00:14:46.784Z,12.45
2022-08-07T00:15:50.963Z,12.40
2022-08-07T00:16:46.854Z,12.36
2022-08-07T00:17:46.933Z,12.29
2022-08-07T00:18:46.974Z,12.25
2022-08-07T00:20:01.104Z,12.20
2022-08-07T00:20:47.666Z,12.12
2022-08-07T00:21:57.003Z,12.08
2022-08-07T00:22:51.458Z,12.02
2022-08-07T00:23:47.546Z,11.97
2022-08-07T00:24:47.106Z,11.93
2022-08-07T00:25:58.997Z,11.93
2022-08-07T00:26:58.954Z,11.89
2022-08-07T00:27:52.609Z,11.91
2022-08-07T00:28:56.508Z,11.88
2022-08-07T00:29:47.267Z,11.86
2022-08-07T00:30:47.318Z,11.85
2022-08-07T00:31:51.234Z,11.83
2022-08-07T00:32:47.358Z,11.81
2022-08-07T00:33:47.970Z,11.80
2022-08-07T00:34:47.483Z,11.80
2022-08-07T00:35:49.749Z,11.76
2022-08-07T00:36:47.569Z,11.76
2022-08-07T00:37:48.619Z,11.77
2022-08-07T00:38:47.631Z,11.77
2022-08-07T00:39:54.629Z,11.76
2022-08-07T00:40:47.709Z,11.74
2022-08-07T00:41:53.490Z,11.74
2022-08-07T00:42:50.206Z,11.74
2022-08-07T00:44:00.446Z,11.73
2022-08-07T00:44:47.887Z,11.71
2022-08-07T00:45:48.572Z,11.68
2022-08-07T00:46:47.952Z,11.67
2022-08-07T00:48:09.273Z,11.65
2022-08-07T00:48:49.933Z,11.62
2022-08-07T00:50:19.249Z,11.58
2022-08-07T00:50:51.341Z,11.56
2022-08-07T00:51:58.515Z,11.56
2022-08-07T00:52:48.183Z,11.53
2022-08-07T00:53:55.322Z,11.55
2022-08-07T00:54:53.911Z,11.56
2022-08-07T00:56:03.207Z,11.60
2022-08-07T00:56:49.780Z,11.60
2022-08-07T00:57:55.865Z,11.62
2022-08-07T00:58:49.850Z,11.60
2022-08-07T00:59:48.469Z,11.56
2022-08-07T01:00:51.378Z,11.53
2022-08-07T01:01:48.674Z,11.51
2022-08-07T01:02:48.548Z,11.45
2022-08-07T01:03:56.771Z,11.44
2022-08-07T01:04:48.652Z,11.43
2022-08-07T01:05:51.630Z,11.38
2022-08-07T01:06:48.630Z,11.30
2022-08-07T01:07:48.640Z,11.27
2022-08-07T01:08:53.149Z,11.26
2022-08-07T01:10:05.959Z,11.27
2022-08-07T01:10:54.363Z,11.25
2022-08-07T01:12:09.538Z,11.22
2022-08-07T01:12:53.964Z,11.19
2022-08-07T01:13:55.529Z,11.20
2022-08-07T01:14:48.811Z,11.18
2022-08-07T01:16:05.293Z,11.16
2022-08-07T01:16:48.932Z,11.16
2022-08-07T01:17:48.974Z,11.18
2022-08-07T01:18:49.021Z,11.15
2022-08-07T01:19:54.336Z,11.12
2022-08-07T01:20:57.454Z,11.12
2022-08-07T01:21:49.128Z,11.12
2022-08-07T01:23:12.290Z,11.12
2022-08-07T01:23:49.221Z,11.10
2022-08-07T01:24:49.263Z,11.12
2022-08-07T01:25:55.381Z,11.04
2022-08-07T01:26:51.922Z,11.00
2022-08-07T01:27:51.116Z,10.92
2022-08-07T01:28:49.351Z,10.90
2022-08-07T01:29:50.558Z,10.90
2022-08-07T01:30:51.360Z,10.80
2022-08-07T01:31:49.404Z,10.79
2022-08-07T01:32:49.433Z,10.72
2022-08-07T01:33:55.974Z,10.67
2022-08-07T01:34:49.513Z,10.64
2022-08-07T01:35:54.141Z,10.65
2022-08-07T01:36:52.588Z,10.62
2022-08-07T01:37:49.634Z,10.61
2022-08-07T01:38:49.674Z,10.64
2022-08-07T01:39:49.759Z,10.61
2022-08-07T01:40:49.720Z,10.59
2022-08-07T01:42:36.982Z,10.61
2022-08-07T01:42:57.409Z,10.65
2022-08-07T01:43:49.766Z,10.71
2022-08-07T01:44:49.745Z,10.72
2022-08-07T01:45:49.786Z,10.76
2022-08-07T01:46:49.805Z,10.76
2022-08-07T01:48:18.533Z,10.75
2022-08-07T01:48:49.797Z,10.76
2022-08-07T01:49:49.846Z,10.75
2022-08-07T01:50:49.867Z,10.72
2022-08-07T01:52:03.175Z,10.68
2022-08-07T01:52:54.339Z,10.65
2022-08-07T01:54:08.528Z,10.65
2022-08-07T01:54:49.989Z,10.61
2022-08-07T01:55:50.022Z,10.59
2022-08-07T01:56:50.072Z,10.65
2022-08-07T01:58:05.747Z,10.64
2022-08-07T01:58:50.091Z,10.65
2022-08-07T01:59:50.137Z,10.65
2022-08-07T02:00:50.173Z,10.62
2022-08-07T02:02:02.386Z,10.58
2022-08-07T02:03:18.742Z,10.57
2022-08-07T02:03:50.961Z,10.51
2022-08-07T02:04:56.239Z,10.53
2022-08-07T02:05:59.331Z,10.53
2022-08-07T02:06:50.381Z,10.53
2022-08-07T02:07:51.396Z,10.51
2022-08-07T02:08:54.387Z,10.51
2022-08-07T02:09:52.859Z,10.55
2022-08-07T02:10:54.980Z,10.57
2022-08-07T02:12:02.729Z,10.61
2022-08-07T02:12:50.594Z,10.61
2022-08-07T02:13:57.753Z,10.61
2022-08-07T02:14:50.673Z,10.61
2022-08-07T02:15:53.106Z,10.61
2022-08-07T02:16:50.793Z,10.59
2022-08-07T02:17:51.693Z,10.59
2022-08-07T02:18:51.163Z,10.61
2022-08-07T02:20:07.732Z,10.61
2022-08-07T02:20:55.834Z,10.58
2022-08-07T02:21:56.435Z,10.58
2022-08-07T02:22:54.842Z,10.61
2022-08-07T02:23:51.055Z,10.59
2022-08-07T02:24:51.121Z,10.61
2022-08-07T02:26:31.542Z,10.59
2022-08-07T02:26:51.187Z,10.62
2022-08-07T02:27:52.916Z,10.62
2022-08-07T02:28:51.239Z,10.65
2022-08-07T02:29:54.545Z,10.62
2022-08-07T02:30:51.317Z,10.59
2022-08-07T02:31:51.361Z,10.61
2022-08-07T02:33:00.528Z,10.58
2022-08-07T02:34:01.648Z,10.58
2022-08-07T02:34:51.538Z,10.51
2022-08-07T02:36:29.162Z,10.42
2022-08-07T02:36:51.509Z,10.34
2022-08-07T02:37:51.561Z,10.36
2022-08-07T02:38:56.817Z,10.38
2022-08-07T02:40:02.150Z,10.38
2022-08-07T02:40:55.585Z,10.41
2022-08-07T02:41:54.418Z,10.38
2022-08-07T02:42:51.741Z,10.34
2022-08-07T02:43:51.760Z,10.38
2022-08-07T02:44:51.922Z,10.38
2022-08-07T02:45:58.612Z,10.41
2022-08-07T02:46:52.872Z,10.36
2022-08-07T02:47:51.831Z,10.36
2022-08-07T02:48:54.917Z,10.39
2022-08-07T02:49:58.312Z,10.39
2022-08-07T02:50:51.902Z,10.38
2022-08-07T02:51:52.424Z,10.36
2022-08-07T02:52:52.001Z,10.31
2022-08-07T02:53:52.023Z,10.33
2022-08-07T02:54:52.198Z,10.30
2022-08-07T02:56:03.291Z,10.28
2022-08-07T02:56:52.113Z,10.24
2022-08-07T02:57:52.173Z,10.20
2022-08-07T02:58:54.137Z,10.18
2022-08-07T02:59:54.842Z,10.17
2022-08-07T03:00:52.308Z,10.13
2022-08-07T03:01:55.357Z,10.17
2022-08-07T03:02:54.940Z,10.13
2022-08-07T03:03:52.375Z,10.09
2022-08-07T03:04:52.444Z,10.06
2022-08-07T03:05:53.656Z,10.09
2022-08-07T03:06:52.565Z,10.09
2022-08-07T03:08:05.272Z,10.07
2022-08-07T03:08:52.645Z,10.07
2022-08-07T03:09:52.809Z,10.06
2022-08-07T03:10:52.636Z,10.06
2022-08-07T03:11:57.999Z,10.03
2022-08-07T03:12:52.656Z,10.00
2022-08-07T03:13:57.620Z,10.02
2022-08-07T03:14:52.918Z,9.99
2022-08-07T03:15:56.278Z,10.00
2022-08-07T03:16:52.744Z,10.00
2022-08-07T03:17:54.332Z,10.00
2022-08-07T03:18:52.807Z,10.00
2022-08-07T03:19:54.841Z,10.00
2022-08-07T03:20:52.923Z,10.02
2022-08-07T03:21:52.989Z,9.99
2022-08-07T03:22:52.978Z,9.94
2022-08-07T03:24:20.860Z,9.85
2022-08-07T03:24:53.039Z,9.84
2022-08-07T03:25:58.345Z,9.84
2022-08-07T03:26:59.157Z,9.87
2022-08-07T03:28:09.202Z,9.81
2022-08-07T03:28:53.154Z,9.80
2022-08-07T03:29:53.197Z,9.82
2022-08-07T03:30:53.243Z,9.84
2022-08-07T03:31:53.250Z,9.87
2022-08-07T03:32:59.378Z,9.90
2022-08-07T03:33:53.291Z,9.91
2022-08-07T03:35:16.738Z,9.94
2022-08-07T03:35:53.372Z,9.94
2022-08-07T03:36:53.734Z,9.91
2022-08-07T03:37:55.176Z,9.92
2022-08-07T03:38:53.403Z,9.91
2022-08-07T03:40:15.063Z,9.87
2022-08-07T03:40:57.453Z,9.87
2022-08-07T03:41:53.449Z,9.88
2022-08-07T03:42:53.434Z,9.87
2022-08-07T03:43:57.169Z,9.88
2022-08-07T03:44:57.820Z,9.82
2022-08-07T03:45:53.453Z,9.80
2022-08-07T03:47:11.057Z,9.77
2022-08-07T03:47:53.544Z,9.74
2022-08-07T03:49:02.963Z,9.74
2022-08-07T03:49:53.754Z,9.76
2022-08-07T03:50:57.662Z,9.76
2022-08-07T03:52:01.040Z,9.74
2022-08-07T03:52:53.752Z,9.74
2022-08-07T03:54:33.014Z,9.74
2022-08-07T03:54:54.861Z,9.80
2022-08-07T03:56:03.700Z,9.73
2022-08-07T03:57:03.287Z,9.74
2022-08-07T03:58:35.153Z,9.73
2022-08-07T03:59:08.365Z,9.72
2022-08-07T04:00:01.884Z,9.72
2022-08-07T04:00:55.928Z,9.69
2022-08-07T04:01:54.110Z,9.67
2022-08-07T04:02:56.773Z,9.64
2022-08-07T04:03:55.111Z,9.63
2022-08-07T04:04:54.107Z,9.63
2022-08-07T04:05:58.838Z,9.64
2022-08-07T04:06:54.190Z,9.63
2022-08-07T04:07:54.270Z,9.59
2022-08-07T04:08:54.290Z,9.58
2022-08-07T04:09:54.289Z,9.59
2022-08-07T04:11:28.877Z,9.59
2022-08-07T04:12:27.782Z,9.58
2022-08-07T04:12:54.400Z,9.62
2022-08-07T04:14:10.348Z,9.66
2022-08-07T04:14:54.441Z,9.69
2022-08-07T04:15:54.441Z,9.72
2022-08-07T04:16:58.199Z,9.73
2022-08-07T04:18:30.876Z,9.74
2022-08-07T04:18:59.716Z,9.76
2022-08-07T04:19:55.263Z,9.76
2022-08-07T04:20:55.160Z,9.77
2022-08-07T04:22:04.909Z,9.80
2022-08-07T04:23:01.612Z,9.81
2022-08-07T04:24:03.894Z,9.84
2022-08-07T04:24:54.692Z,9.85
2022-08-07T04:25:54.723Z,9.87
2022-08-07T04:26:54.802Z,9.85
2022-08-07T04:27:59.185Z,9.85
2022-08-07T04:28:54.863Z,9.88
2022-08-07T04:30:02.152Z,9.87
2022-08-07T04:30:56.902Z,9.87
2022-08-07T04:32:02.926Z,9.87
2022-08-07T04:32:57.857Z,9.85
2022-08-07T04:33:56.642Z,9.87
2022-08-07T04:34:54.975Z,9.88
2022-08-07T04:35:55.015Z,9.91
2022-08-07T04:36:55.048Z,9.95
2022-08-07T04:38:06.781Z,9.99
2022-08-07T04:38:55.098Z,10.02
2022-08-07T04:39:55.128Z,10.05
2022-08-07T04:40:56.874Z,10.07
2022-08-07T04:41:55.107Z,10.07
2022-08-07T04:42:55.150Z,10.03
2022-08-07T04:44:12.791Z,10.05
2022-08-07T04:45:02.921Z,10.05
2022-08-07T04:46:01.308Z,10.05
2022-08-07T04:47:04.800Z,10.06
2022-08-07T04:47:58.767Z,10.07
2022-08-07T04:48:55.474Z,10.06
2022-08-07T04:49:58.174Z,10.06
2022-08-07T04:50:55.148Z,10.06
2022-08-07T04:51:55.188Z,10.09
2022-08-07T04:52:55.168Z,10.09
2022-08-07T04:54:05.336Z,10.12
2022-08-07T04:54:55.230Z,10.12
2022-08-07T04:58:11.957Z,10.15
2022-08-07T04:58:14.164Z,10.18
2022-08-07T04:58:31.630Z,10.25
2022-08-07T04:59:18.179Z,10.27
2022-08-07T05:00:11.120Z,10.30
2022-08-07T05:00:55.377Z,10.33
2022-08-07T05:01:55.371Z,10.38
2022-08-07T05:02:55.381Z,10.42
2022-08-07T05:04:07.717Z,10.43
2022-08-07T05:04:55.452Z,10.49
2022-08-07T05:05:57.494Z,10.65
2022-08-07T05:06:55.483Z,10.90
2022-08-07T05:07:55.668Z,11.12
2022-08-07T05:09:01.242Z,11.20
2022-08-07T05:09:55.593Z,11.22
2022-08-07T05:10:58.591Z,11.22
2022-08-07T05:11:57.244Z,11.19
2022-08-07T05:12:59.828Z,11.18
2022-08-07T05:14:53.681Z,11.15
2022-08-07T05:15:03.286Z,11.15
2022-08-07T05:15:55.706Z,11.19
2022-08-07T05:16:55.714Z,11.20
2022-08-07T05:17:55.891Z,11.25
2022-08-07T05:18:55.791Z,11.33
2022-08-07T05:19:55.816Z,11.41
2022-08-07T05:20:55.787Z,11.77
2022-08-07T05:22:00.093Z,12.47
2022-08-07T05:22:55.866Z,13.23
2022-08-07T05:23:55.917Z,13.83
2022-08-07T05:24:55.990Z,14.37
2022-08-07T05:26:13.492Z,14.77
2022-08-07T05:26:56.060Z,15.12
2022-08-07T05:28:03.411Z,15.57
2022-08-07T05:28:56.110Z,15.98
2022-08-07T05:29:56.121Z,16.37
2022-08-07T05:30:56.765Z,16.72
2022-08-07T05:31:56.109Z,17.10
2022-08-07T05:32:56.141Z,17.39
2022-08-07T05:34:04.900Z,17.68
2022-08-07T05:34:56.183Z,17.94
2022-08-07T05:35:56.223Z,18.09
2022-08-07T05:36:56.253Z,18.11
2022-08-07T05:38:08.847Z,18.08
2022-08-07T05:39:00.561Z,18.18
2022-08-07T05:40:18.442Z,18.26
2022-08-07T05:40:56.446Z,18.55
2022-08-07T05:42:01.803Z,18.71
2022-08-07T05:42:56.615Z,18.70
2022-08-07T05:44:12.079Z,18.71
2022-08-07T05:45:04.479Z,18.83
2022-08-07T05:45:56.626Z,19.08
2022-08-07T05:46:56.668Z,19.27
2022-08-07T05:48:01.218Z,19.41
2022-08-07T05:48:59.095Z,19.63
2022-08-07T05:49:56.778Z,19.84
2022-08-07T05:50:56.760Z,19.90
2022-08-07T05:51:56.809Z,20.00
2022-08-07T05:52:56.849Z,20.11
2022-08-07T05:54:13.828Z,20.27
2022-08-07T05:54:58.777Z,20.46
2022-08-07T05:56:02.198Z,20.64
2022-08-07T05:56:56.991Z,20.75
2022-08-07T05:57:57.053Z,20.68
2022-08-07T05:58:57.024Z,20.71
2022-08-07T05:59:58.217Z,20.90
2022-08-07T06:00:57.033Z,21.08
2022-08-07T06:01:57.419Z,21.14
2022-08-07T06:02:57.175Z,21.29
2022-08-07T06:03:58.848Z,21.44
2022-08-07T06:04:57.237Z,21.60
2022-08-07T06:05:57.316Z,21.85
2022-08-07T06:07:03.793Z,22.10
2022-08-07T06:08:14.726Z,22.21
2022-08-07T06:08:57.467Z,22.25
2022-08-07T06:10:05.504Z,22.23
2022-08-07T06:10:57.539Z,22.16
2022-08-07T06:11:57.540Z,22.15
2022-08-07T06:12:57.600Z,22.23
2022-08-07T06:14:13.255Z,22.38
2022-08-07T06:15:02.959Z,22.44
2022-08-07T06:15:57.702Z,22.46
2022-08-07T06:16:57.722Z,22.47
2022-08-07T06:17:57.762Z,22.37
2022-08-07T06:18:57.794Z,22.33
2022-08-07T06:20:04.306Z,21.97
2022-08-07T06:22:11.676Z,21.65
2022-08-07T06:22:14.889Z,21.44
2022-08-07T06:23:02.568Z,21.45
2022-08-07T06:24:45.946Z,21.69
2022-08-07T06:25:01.094Z,21.74
2022-08-07T06:25:58.119Z,21.47
2022-08-07T06:26:58.166Z,21.69
2022-08-07T06:28:01.483Z,21.97
2022-08-07T06:28:59.019Z,22.10
2022-08-07T06:29:58.228Z,22.22
2022-08-07T06:30:58.626Z,22.15
2022-08-07T06:31:58.299Z,22.14
2022-08-07T06:32:58.349Z,22.22
2022-08-07T06:33:58.411Z,21.72
2022-08-07T06:34:58.448Z,21.70
2022-08-07T06:36:12.795Z,21.89
2022-08-07T06:36:58.482Z,22.22
2022-08-07T06:37:58.523Z,22.51
2022-08-07T06:40:13.427Z,22.68
2022-08-07T06:40:17.562Z,22.49
2022-08-07T06:40:58.769Z,22.30
2022-08-07T06:42:01.753Z,22.18
2022-08-07T06:42:58.821Z,22.07
2022-08-07T06:44:01.348Z,22.25
2022-08-07T06:44:58.838Z,22.37
2022-08-07T06:46:01.013Z,22.63
2022-08-07T06:47:10.230Z,22.89
2022-08-07T06:47:59.609Z,22.77
2022-08-07T06:48:58.950Z,22.53
2022-08-07T06:49:59.087Z,22.67
2022-08-07T06:50:59.049Z,22.99
2022-08-07T06:51:59.598Z,23.20
2022-08-07T06:52:59.120Z,23.26
2022-08-07T06:55:27.499Z,23.25
2022-08-07T06:55:32.011Z,23.47
2022-08-07T06:56:01.889Z,23.48
2022-08-07T06:56:59.289Z,23.32
2022-08-07T06:58:00.245Z,22.59
2022-08-07T07:00:11.857Z,22.51
2022-08-07T07:00:13.716Z,22.18
2022-08-07T07:00:59.344Z,22.77
2022-08-07T07:01:59.597Z,23.06
2022-08-07T07:03:08.777Z,23.34
2022-08-07T07:04:08.254Z,23.25
2022-08-07T07:04:59.523Z,22.92
2022-08-07T07:06:02.462Z,22.84
2022-08-07T07:07:01.216Z,23.16
2022-08-07T07:08:06.605Z,23.08
2022-08-07T07:08:59.662Z,22.84
2022-08-07T07:09:59.705Z,23.17
2022-08-07T07:11:00.929Z,23.42
2022-08-07T07:12:08.991Z,23.54
2022-08-07T07:12:59.671Z,23.81
2022-08-07T07:14:02.237Z,24.09
2022-08-07T07:14:59.672Z,24.06
2022-08-07T07:15:59.672Z,24.03
2022-08-07T07:16:59.723Z,24.13
2022-08-07T07:17:59.763Z,23.92
2022-08-07T07:18:59.817Z,23.84
2022-08-07T07:19:59.849Z,23.89
2022-08-07T07:20:59.885Z,24.14
2022-08-07T07:22:11.961Z,24.19
2022-08-07T07:24:05.644Z,24.18
2022-08-07T07:24:08.735Z,24.31
2022-08-07T07:25:02.901Z,24.59
2022-08-07T07:26:33.482Z,25.04
2022-08-07T07:27:00.126Z,25.19
2022-08-07T07:28:03.238Z,24.74
2022-08-07T07:29:56.761Z,24.88
2022-08-07T07:30:08.904Z,25.01
2022-08-07T07:31:00.271Z,25.18
2022-08-07T07:32:00.311Z,25.15
2022-08-07T07:33:00.343Z,25.33
2022-08-07T07:34:00.423Z,25.46
2022-08-07T07:35:04.523Z,25.46
2022-08-07T07:36:05.426Z,25.22
2022-08-07T07:37:14.817Z,25.31
2022-08-07T07:38:02.407Z,25.41
2022-08-07T07:39:00.695Z,25.12
2022-08-07T07:40:00.682Z,25.29
2022-08-07T07:41:02.406Z,25.19
2022-08-07T07:42:12.892Z,24.84
2022-08-07T07:43:11.606Z,25.03
2022-08-07T07:44:17.052Z,25.36
2022-08-07T07:45:00.775Z,25.55
2022-08-07T07:46:37.328Z,25.83
2022-08-07T07:47:14.050Z,26.18
2022-08-07T07:48:00.861Z,26.26
2022-08-07T07:50:15.944Z,26.36
2022-08-07T07:50:35.668Z,26.01
2022-08-07T07:51:02.131Z,25.95
2022-08-07T07:52:01.064Z,25.91
2022-08-07T07:53:01.129Z,25.91
2022-08-07T07:54:01.141Z,26.24
2022-08-07T07:55:01.224Z,26.53
2022-08-07T07:56:01.385Z,26.60
2022-08-07T07:57:01.525Z,26.83
2022-08-07T07:58:01.263Z,27.03
2022-08-07T07:59:01.611Z,27.22
2022-08-07T08:00:02.132Z,27.43
2022-08-07T08:01:01.348Z,27.29
2022-08-07T08:02:05.261Z,26.97
2022-08-07T08:03:05.217Z,26.13
2022-08-07T08:04:10.358Z,25.86
2022-08-07T08:05:01.510Z,25.62
2022-08-07T08:06:01.549Z,25.66
2022-08-07T08:07:02.863Z,25.83
2022-08-07T08:08:01.961Z,26.34
2022-08-07T08:09:01.662Z,26.97
2022-08-07T08:10:05.438Z,27.19
2022-08-07T08:11:01.732Z,27.20
2022-08-07T08:12:04.965Z,27.38
2022-08-07T08:13:03.035Z,27.41
2022-08-07T08:14:01.854Z,27.58
2022-08-07T08:15:01.911Z,27.45
2022-08-07T08:16:01.962Z,27.35
2022-08-07T08:17:55.334Z,27.37
2022-08-07T08:18:17.916Z,27.28
2022-08-07T08:19:17.440Z,26.81
2022-08-07T08:20:19.626Z,27.11
2022-08-07T08:21:02.179Z,27.30
2022-08-07T08:22:03.263Z,27.43
2022-08-07T08:23:02.199Z,27.44
2022-08-07T08:24:02.294Z,27.53
2022-08-07T08:25:18.127Z,27.67
2022-08-07T08:26:06.696Z,27.67
2022-08-07T08:27:02.328Z,27.76
2022-08-07T08:28:03.974Z,27.33
2022-08-07T08:29:02.389Z,27.60
2022-08-07T08:30:03.846Z,27.48
2022-08-07T08:31:02.450Z,27.23
2022-08-07T08:32:17.764Z,26.97
2022-08-07T08:33:03.006Z,27.29
2022-08-07T08:34:02.572Z,26.79
2022-08-07T08:35:02.583Z,26.45
2022-08-07T08:36:02.583Z,26.24
2022-08-07T08:37:02.637Z,25.41
2022-08-07T08:38:04.668Z,25.07
2022-08-07T08:39:02.939Z,24.66
2022-08-07T08:40:02.779Z,25.11
2022-08-07T08:41:02.981Z,25.48
2022-08-07T08:42:02.817Z,25.71
2022-08-07T08:43:02.945Z,26.31
2022-08-07T08:44:02.917Z,26.79
2022-08-07T08:45:04.432Z,27.22
2022-08-07T08:46:02.970Z,27.66
2022-08-07T08:47:03.018Z,28.04
2022-08-07T08:48:03.112Z,28.22
2022-08-07T08:49:03.070Z,28.27
2022-08-07T08:50:05.704Z,28.18
2022-08-07T08:51:03.385Z,27.86
2022-08-07T08:52:13.677Z,27.64
2022-08-07T08:53:03.272Z,27.37
2022-08-07T08:54:03.263Z,27.25
2022-08-07T08:55:07.619Z,26.86
2022-08-07T08:56:03.362Z,26.53
2022-08-07T08:57:03.365Z,26.63
2022-08-07T08:58:03.425Z,26.76
2022-08-07T08:59:06.658Z,26.81
2022-08-07T09:00:03.476Z,26.49
2022-08-07T09:01:14.555Z,26.42
2022-08-07T09:02:03.646Z,26.44
2022-08-07T09:03:07.461Z,26.03
2022-08-07T09:04:03.620Z,26.15
2022-08-07T09:05:03.680Z,26.46
2022-08-07T09:06:03.757Z,26.63
2022-08-07T09:07:04.063Z,27.16
2022-08-07T09:08:03.800Z,27.71
2022-08-07T09:09:13.406Z,27.40
2022-08-07T09:10:03.843Z,28.03
2022-08-07T09:11:03.891Z,28.04
2022-08-07T09:12:30.533Z,28.27
2022-08-07T09:13:03.997Z,28.71
2022-08-07T09:14:04.933Z,28.96
2022-08-07T09:16:20.657Z,28.40
2022-08-07T09:16:25.930Z,27.82
2022-08-07T09:17:04.144Z,26.88
2022-08-07T09:18:08.774Z,26.36
2022-08-07T09:19:07.078Z,26.34
2022-08-07T09:20:09.433Z,26.49
2022-08-07T09:21:04.162Z,26.88
2022-08-07T09:22:22.636Z,27.07
2022-08-07T09:24:33.192Z,27.25
2022-08-07T09:24:34.199Z,27.64
2022-08-07T09:25:07.119Z,27.98
2022-08-07T09:26:04.364Z,28.13
2022-08-07T09:27:09.153Z,28.35
2022-08-07T09:28:04.351Z,28.27
2022-08-07T09:30:05.169Z,28.31
2022-08-07T09:30:08.448Z,28.37
2022-08-07T09:31:04.413Z,28.53
2022-08-07T09:32:04.377Z,28.62
2022-08-07T09:33:05.229Z,28.49
2022-08-07T09:34:05.132Z,28.56
2022-08-07T09:36:04.125Z,28.49
2022-08-07T09:36:07.611Z,28.45
2022-08-07T09:37:04.714Z,28.18
2022-08-07T09:38:05.411Z,27.68
2022-08-07T09:39:11.465Z,27.41
2022-08-07T09:40:04.659Z,27.52
2022-08-07T09:41:04.703Z,27.33
2022-08-07T09:42:06.572Z,27.25
2022-08-07T09:43:04.681Z,27.75
2022-08-07T09:44:06.725Z,28.12
2022-08-07T09:47:25.997Z,28.43
2022-08-07T09:47:49.689Z,28.41
2022-08-07T09:47:50.517Z,28.52
2022-08-07T09:48:11.722Z,28.87
2022-08-07T09:50:02.500Z,29.20
2022-08-07T09:50:18.424Z,28.84
2022-08-07T09:51:05.371Z,28.72
2022-08-07T09:52:16.673Z,28.86
2022-08-07T09:53:05.077Z,29.25
2022-08-07T09:54:05.113Z,29.03
2022-08-07T09:55:05.056Z,29.10
2022-08-07T09:56:05.517Z,28.89
2022-08-07T09:57:05.148Z,28.34
2022-08-07T09:58:05.157Z,27.97
2022-08-07T09:59:07.850Z,28.41
2022-08-07T10:00:05.145Z,28.59
2022-08-07T10:01:08.446Z,28.72
2022-08-07T10:02:05.301Z,28.97
2022-08-07T10:03:08.411Z,29.25
2022-08-07T10:04:14.869Z,28.47
2022-08-07T10:05:12.648Z,27.73
2022-08-07T10:06:10.850Z,27.63
2022-08-07T10:07:05.430Z,27.88
2022-08-07T10:08:05.462Z,28.47
2022-08-07T10:09:05.646Z,29.13
2022-08-07T10:10:05.585Z,29.57
2022-08-07T10:11:59.542Z,29.92
2022-08-07T10:12:15.464Z,30.33
2022-08-07T10:13:05.585Z,30.51
2022-08-07T10:14:05.694Z,30.46
2022-08-07T10:15:06.358Z,30.56
2022-08-07T10:16:05.706Z,30.38
2022-08-07T10:17:14.432Z,29.94
2022-08-07T10:18:05.816Z,30.08
2022-08-07T10:19:11.363Z,29.53
2022-08-07T10:20:05.902Z,29.07
2022-08-07T10:21:20.064Z,28.87
2022-08-07T10:22:16.045Z,28.64
2022-08-07T10:23:07.645Z,28.18
2022-08-07T10:24:08.573Z,28.23
2022-08-07T10:25:06.863Z,28.59
2022-08-07T10:26:06.080Z,28.87
2022-08-07T10:27:06.704Z,29.06
2022-08-07T10:28:06.955Z,28.94
2022-08-07T10:29:06.053Z,28.47
2022-08-07T10:30:06.417Z,28.41
2022-08-07T10:31:11.010Z,28.40
2022-08-07T10:32:06.222Z,28.20
2022-08-07T10:33:06.215Z,28.46
2022-08-07T10:34:15.738Z,28.41
2022-08-07T10:35:09.122Z,28.03
2022-08-07T10:36:12.549Z,27.68
2022-08-07T10:37:06.321Z,28.03
2022-08-07T10:38:21.256Z,28.03
2022-08-07T10:39:06.555Z,27.90
2022-08-07T10:40:09.150Z,27.83
2022-08-07T10:41:06.523Z,28.28
2022-08-07T10:42:09.706Z,28.80
2022-08-07T10:43:06.829Z,28.92
2022-08-07T10:44:07.779Z,28.74
2022-08-07T10:45:07.382Z,28.15
2022-08-07T10:46:06.593Z,28.47
2022-08-07T10:47:11.588Z,28.70
2022-08-07T10:48:07.339Z,28.67
2022-08-07T10:49:06.634Z,28.72
2022-08-07T10:50:06.635Z,28.93
2022-08-07T10:51:06.654Z,29.18
2022-08-07T10:52:13.227Z,29.52
2022-08-07T10:53:08.980Z,29.57
2022-08-07T10:54:06.660Z,28.34
2022-08-07T10:55:20.905Z,27.76
2022-08-07T10:56:06.708Z,27.85
2022-08-07T10:57:06.758Z,27.72
2022-08-07T10:58:07.639Z,27.83
2022-08-07T10:59:06.847Z,27.76
2022-08-07T11:00:06.911Z,28.13
2022-08-07T11:01:11.657Z,28.46
2022-08-07T11:02:12.482Z,28.67
2022-08-07T11:03:11.030Z,28.15
2022-08-07T11:04:16.981Z,28.08
2022-08-07T11:05:10.552Z,27.78
2022-08-07T11:06:07.064Z,26.96
2022-08-07T11:07:14.938Z,26.33
2022-08-07T11:08:07.412Z,26.33
2022-08-07T11:09:11.457Z,26.55
2022-08-07T11:10:10.918Z,26.36
2022-08-07T11:11:07.357Z,26.31
2022-08-07T11:12:07.250Z,26.34
2022-08-07T11:13:07.216Z,26.73
2022-08-07T11:14:57.474Z,26.98
2022-08-07T11:15:09.634Z,27.00
2022-08-07T11:16:08.169Z,27.44
2022-08-07T11:17:09.124Z,27.86
2022-08-07T11:18:07.350Z,28.33
2022-08-07T11:19:08.069Z,28.67
2022-08-07T11:20:09.770Z,28.55
2022-08-07T11:21:07.858Z,28.41
2022-08-07T11:22:18.952Z,28.13
2022-08-07T11:23:09.287Z,28.30
2022-08-07T11:24:08.353Z,28.56
2022-08-07T11:25:07.636Z,28.31
2022-08-07T11:26:07.643Z,28.55
2022-08-07T11:27:07.707Z,28.67
2022-08-07T11:28:08.130Z,28.57
2022-08-07T11:29:13.163Z,28.13
2022-08-07T11:30:10.122Z,27.57
2022-08-07T11:31:08.527Z,27.60
2022-08-07T11:32:07.865Z,28.08
2022-08-07T11:33:14.275Z,28.50
2022-08-07T11:34:10.860Z,28.64
2022-08-07T11:35:09.329Z,28.67
2022-08-07T11:36:10.109Z,28.82
2022-08-07T11:37:11.836Z,28.86
2022-08-07T11:38:12.495Z,28.94
2022-08-07T11:39:08.111Z,28.67
2022-08-07T11:40:08.119Z,28.78
2022-08-07T11:41:08.078Z,28.55
2022-08-07T11:42:08.127Z,28.30
2022-08-07T11:43:08.163Z,28.31
2022-08-07T11:44:12.283Z,28.71
2022-08-07T11:45:08.219Z,28.87
2022-08-07T11:46:08.221Z,28.35
2022-08-07T11:47:08.250Z,28.77
2022-08-07T11:48:18.008Z,28.96
2022-08-07T11:49:51.299Z,28.84
2022-08-07T11:50:31.587Z,29.12
2022-08-07T11:51:09.715Z,28.97
2022-08-07T11:52:08.463Z,29.00
2022-08-07T11:53:08.513Z,28.80
2022-08-07T11:54:10.423Z,28.23
2022-08-07T11:55:18.693Z,28.75
2022-08-07T11:56:27.206Z,29.15
2022-08-07T11:57:12.825Z,28.93
2022-08-07T11:58:12.574Z,28.64
2022-08-07T12:00:07.974Z,28.62
2022-08-07T12:00:19.243Z,28.92
2022-08-07T12:01:09.016Z,28.93
2022-08-07T12:02:17.602Z,28.78
2022-08-07T12:03:08.976Z,29.05
2022-08-07T12:04:09.009Z,28.50
2022-08-07T12:05:28.840Z,28.35
2022-08-07T12:06:37.034Z,28.38
2022-08-07T12:07:20.298Z,28.68
2022-08-07T12:08:25.462Z,29.03
2022-08-07T12:09:16.064Z,29.20
2022-08-07T12:10:09.179Z,29.31
2022-08-07T12:11:20.184Z,29.37
2022-08-07T12:12:11.424Z,29.57
2022-08-07T12:13:11.707Z,29.22
2022-08-07T12:14:09.703Z,29.31
2022-08-07T12:15:17.207Z,29.02
2022-08-07T12:16:09.441Z,28.28
2022-08-07T12:17:09.286Z,28.16
2022-08-07T12:18:11.213Z,28.64
2022-08-07T12:19:09.316Z,29.32
2022-08-07T12:20:20.062Z,29.24
2022-08-07T12:21:09.386Z,29.50
2022-08-07T12:22:39.327Z,29.10
2022-08-07T12:23:09.471Z,29.05
2022-08-07T12:24:38.387Z,28.43
2022-08-07T12:25:09.528Z,27.64
2022-08-07T12:26:28.561Z,27.53
2022-08-07T12:27:16.014Z,27.97
2022-08-07T12:28:10.861Z,28.16
2022-08-07T12:29:09.616Z,28.47
2022-08-07T12:30:09.660Z,28.49
2022-08-07T12:31:09.723Z,28.31
2022-08-07T12:32:13.115Z,27.94
2022-08-07T12:33:23.329Z,28.22
2022-08-07T12:34:11.256Z,28.23
2022-08-07T12:35:09.785Z,27.61
2022-08-07T12:36:11.107Z,27.26
2022-08-07T12:37:16.581Z,27.34
2022-08-07T12:38:16.877Z,27.03
2022-08-07T12:39:42.631Z,27.22
2022-08-07T12:40:24.172Z,27.71
2022-08-07T12:41:10.131Z,28.28
2022-08-07T12:42:09.967Z,28.87
2022-08-07T12:43:10.312Z,29.18
2022-08-07T12:44:13.109Z,29.16
2022-08-07T12:45:10.099Z,29.22
2022-08-07T12:46:10.111Z,28.74
2022-08-07T12:47:10.159Z,28.82
2022-08-07T12:48:13.069Z,29.13
2022-08-07T12:49:25.665Z,29.37
2022-08-07T12:50:39.450Z,29.52
2022-08-07T12:51:12.842Z,30.01
2022-08-07T12:52:14.547Z,30.05
2022-08-07T12:53:17.686Z,30.33
2022-08-07T12:54:36.897Z,30.35
2022-08-07T12:55:10.374Z,30.06
2022-08-07T12:56:11.105Z,30.33